sensor_id;sensor_type;location;lat;lon;timestamp;pressure;altitude;pressure_sealevel;temperature;humidity
82668;BME280;72376;51.374;-0.176;2023-08-24T00:01:12;101221.32;;;23.49;40.83
82668;BME280;72376;51.374;-0.176;2023-08-24T00:03:37;101227.90;;;23.53;40.45
82668;BME280;72376;51.374;-0.176;2023-08-24T00:06:02;101227.80;;;23.47;40.35
82668;BME280;72376;51.374;-0.176;2023-08-24T00:08:27;101235.00;;;23.80;40.21
82668;BME280;72376;51.374;-0.176;2023-08-24T00:10:53;101235.45;;;23.67;40.34
82668;BME280;72376;51.374;-0.176;2023-08-24T00:13:18;101232.02;;;23.34;40.94
82668;BME280;72376;51.374;-0.176;2023-08-24T00:15:43;101227.70;;;22.38;41.92
82668;BME280;72376;51.374;-0.176;2023-08-24T00:18:08;101222.60;;;22.74;41.74
82668;BME280;72376;51.374;-0.176;2023-08-24T00:20:34;101220.10;;;23.11;41.46
82668;BME280;72376;51.374;-0.176;2023-08-24T00:22:59;101218.57;;;23.02;41.18
82668;BME280;72376;51.374;-0.176;2023-08-24T00:25:24;101222.39;;;23.21;40.91
82668;BME280;72376;51.374;-0.176;2023-08-24T00:27:50;101216.92;;;23.00;41.47
82668;BME280;72376;51.374;-0.176;2023-08-24T00:30:15;101211.26;;;22.73;41.42
82668;BME280;72376;51.374;-0.176;2023-08-24T00:32:40;101212.31;;;23.01;40.99
82668;BME280;72376;51.374;-0.176;2023-08-24T00:35:08;101216.72;;;22.52;41.60
82668;BME280;72376;51.374;-0.176;2023-08-24T00:37:32;101211.72;;;22.94;41.28
82668;BME280;72376;51.374;-0.176;2023-08-24T00:39:56;101209.83;;;22.72;41.18
82668;BME280;72376;51.374;-0.176;2023-08-24T00:42:21;101205.60;;;23.21;40.81
82668;BME280;72376;51.374;-0.176;2023-08-24T00:44:47;101205.13;;;22.86;41.55
82668;BME280;72376;51.374;-0.176;2023-08-24T00:47:12;101210.71;;;22.27;42.10
82668;BME280;72376;51.374;-0.176;2023-08-24T00:49:38;101208.10;;;22.51;41.75
82668;BME280;72376;51.374;-0.176;2023-08-24T00:52:03;101207.84;;;22.55;41.61
82668;BME280;72376;51.374;-0.176;2023-08-24T00:54:28;101210.81;;;22.31;42.02
82668;BME280;72376;51.374;-0.176;2023-08-24T00:56:54;101210.46;;;22.86;41.52
82668;BME280;72376;51.374;-0.176;2023-08-24T00:59:19;101211.32;;;22.60;41.54
82668;BME280;72376;51.374;-0.176;2023-08-24T01:01:45;101213.57;;;21.92;42.95
82668;BME280;72376;51.374;-0.176;2023-08-24T01:04:09;101209.74;;;22.06;42.67
82668;BME280;72376;51.374;-0.176;2023-08-24T01:06:35;101205.76;;;21.94;42.74
82668;BME280;72376;51.374;-0.176;2023-08-24T01:09:00;101205.12;;;22.33;42.17
82668;BME280;72376;51.374;-0.176;2023-08-24T01:11:32;101204.36;;;21.80;42.43
82668;BME280;72376;51.374;-0.176;2023-08-24T01:13:58;101204.36;;;22.48;41.72
82668;BME280;72376;51.374;-0.176;2023-08-24T01:16:19;101198.49;;;21.80;42.30
82668;BME280;72376;51.374;-0.176;2023-08-24T01:18:41;101193.34;;;22.54;41.58
82668;BME280;72376;51.374;-0.176;2023-08-24T01:21:07;101189.78;;;22.24;41.88
82668;BME280;72376;51.374;-0.176;2023-08-24T01:23:43;101181.64;;;21.89;41.89
82668;BME280;72376;51.374;-0.176;2023-08-24T01:26:04;101185.33;;;21.85;42.40
82668;BME280;72376;51.374;-0.176;2023-08-24T01:28:23;101185.86;;;22.33;41.53
82668;BME280;72376;51.374;-0.176;2023-08-24T01:30:48;101186.50;;;22.31;41.22
82668;BME280;72376;51.374;-0.176;2023-08-24T01:33:13;101179.45;;;22.44;41.23
82668;BME280;72376;51.374;-0.176;2023-08-24T01:35:39;101176.40;;;21.06;43.76
82668;BME280;72376;51.374;-0.176;2023-08-24T01:38:04;101168.66;;;21.60;42.36
82668;BME280;72376;51.374;-0.176;2023-08-24T01:40:38;101164.33;;;21.68;42.28
82668;BME280;72376;51.374;-0.176;2023-08-24T01:42:57;101157.71;;;22.34;41.23
82668;BME280;72376;51.374;-0.176;2023-08-24T01:45:22;101152.88;;;22.13;41.54
82668;BME280;72376;51.374;-0.176;2023-08-24T01:47:47;101147.59;;;22.33;41.23
82668;BME280;72376;51.374;-0.176;2023-08-24T01:50:11;101144.83;;;22.07;41.80
82668;BME280;72376;51.374;-0.176;2023-08-24T01:52:37;101136.46;;;22.06;41.95
82668;BME280;72376;51.374;-0.176;2023-08-24T01:55:02;101130.91;;;22.41;41.57
82668;BME280;72376;51.374;-0.176;2023-08-24T01:57:27;101129.57;;;22.31;41.80
82668;BME280;72376;51.374;-0.176;2023-08-24T01:59:53;101129.26;;;22.10;42.14
82668;BME280;72376;51.374;-0.176;2023-08-24T02:02:18;101128.50;;;22.05;42.09
82668;BME280;72376;51.374;-0.176;2023-08-24T02:04:43;101122.26;;;21.72;42.62
82668;BME280;72376;51.374;-0.176;2023-08-24T02:07:09;101117.37;;;21.96;42.20
82668;BME280;72376;51.374;-0.176;2023-08-24T02:09:34;101116.11;;;22.02;42.08
82668;BME280;72376;51.374;-0.176;2023-08-24T02:11:59;101100.07;;;22.14;41.77
82668;BME280;72376;51.374;-0.176;2023-08-24T02:14:24;101081.51;;;22.20;41.65
82668;BME280;72376;51.374;-0.176;2023-08-24T02:16:50;101062.29;;;22.20;41.69
82668;BME280;72376;51.374;-0.176;2023-08-24T02:19:15;101054.73;;;21.56;42.50
82668;BME280;72376;51.374;-0.176;2023-08-24T02:21:41;101051.57;;;22.13;41.78
82668;BME280;72376;51.374;-0.176;2023-08-24T02:24:06;101058.05;;;21.75;42.28
82668;BME280;72376;51.374;-0.176;2023-08-24T02:26:31;101071.42;;;22.07;41.85
82668;BME280;72376;51.374;-0.176;2023-08-24T02:28:57;101083.22;;;21.06;43.39
82668;BME280;72376;51.374;-0.176;2023-08-24T02:31:22;101076.91;;;21.64;42.57
82668;BME280;72376;51.374;-0.176;2023-08-24T02:33:47;101057.82;;;20.95;43.55
82668;BME280;72376;51.374;-0.176;2023-08-24T02:36:13;101056.03;;;21.52;43.38
82668;BME280;72376;51.374;-0.176;2023-08-24T02:38:38;101044.21;;;21.32;43.64
82668;BME280;72376;51.374;-0.176;2023-08-24T02:41:04;101036.98;;;21.23;43.03
82668;BME280;72376;51.374;-0.176;2023-08-24T02:43:29;101026.88;;;21.32;42.92
82668;BME280;72376;51.374;-0.176;2023-08-24T02:45:55;101030.56;;;21.36;42.85
82668;BME280;72376;51.374;-0.176;2023-08-24T02:48:19;101036.80;;;22.06;41.70
82668;BME280;72376;51.374;-0.176;2023-08-24T02:50:51;101035.54;;;21.39;43.34
82668;BME280;72376;51.374;-0.176;2023-08-24T02:53:10;101034.56;;;20.04;46.30
82668;BME280;72376;51.374;-0.176;2023-08-24T02:55:36;101035.52;;;20.98;44.70
82668;BME280;72376;51.374;-0.176;2023-08-24T02:58:01;101034.61;;;21.03;43.81
82668;BME280;72376;51.374;-0.176;2023-08-24T03:00:26;101032.98;;;21.40;43.51
82668;BME280;72376;51.374;-0.176;2023-08-24T03:02:52;101034.87;;;22.01;42.55
82668;BME280;72376;51.374;-0.176;2023-08-24T03:05:17;101038.36;;;21.36;43.26
82668;BME280;72376;51.374;-0.176;2023-08-24T03:07:42;101040.23;;;21.30;43.34
82668;BME280;72376;51.374;-0.176;2023-08-24T03:10:08;101053.15;;;20.85;43.94
82668;BME280;72376;51.374;-0.176;2023-08-24T03:12:33;101054.43;;;20.25;45.51
82668;BME280;72376;51.374;-0.176;2023-08-24T03:14:58;101053.73;;;21.78;43.09
82668;BME280;72376;51.374;-0.176;2023-08-24T03:17:24;101050.77;;;21.65;42.64
82668;BME280;72376;51.374;-0.176;2023-08-24T03:19:49;101038.58;;;21.98;42.11
82668;BME280;72376;51.374;-0.176;2023-08-24T03:22:14;101043.50;;;22.20;41.50
82668;BME280;72376;51.374;-0.176;2023-08-24T03:24:40;101034.25;;;22.08;41.83
82668;BME280;72376;51.374;-0.176;2023-08-24T03:27:05;101024.55;;;22.06;41.89
82668;BME280;72376;51.374;-0.176;2023-08-24T03:29:30;101020.21;;;21.91;42.18
82668;BME280;72376;51.374;-0.176;2023-08-24T03:31:56;101022.11;;;21.96;41.93
82668;BME280;72376;51.374;-0.176;2023-08-24T03:34:21;101021.11;;;22.26;41.66
82668;BME280;72376;51.374;-0.176;2023-08-24T03:36:46;101021.04;;;21.52;42.54
82668;BME280;72376;51.374;-0.176;2023-08-24T03:39:11;101009.60;;;21.31;43.77
82668;BME280;72376;51.374;-0.176;2023-08-24T03:41:37;100992.14;;;21.79;42.18
82668;BME280;72376;51.374;-0.176;2023-08-24T03:44:02;100983.59;;;22.07;41.78
82668;BME280;72376;51.374;-0.176;2023-08-24T03:46:27;100984.16;;;22.19;41.67
82668;BME280;72376;51.374;-0.176;2023-08-24T03:48:53;100969.54;;;22.42;41.44
82668;BME280;72376;51.374;-0.176;2023-08-24T03:51:19;100970.14;;;21.71;42.95
82668;BME280;72376;51.374;-0.176;2023-08-24T03:53:43;100974.61;;;20.88;44.26
82668;BME280;72376;51.374;-0.176;2023-08-24T03:56:09;100986.17;;;22.07;42.01
82668;BME280;72376;51.374;-0.176;2023-08-24T03:58:34;100990.18;;;22.93;40.51
82668;BME280;72376;51.374;-0.176;2023-08-24T04:00:59;100986.49;;;22.46;41.17
82668;BME280;72376;51.374;-0.176;2023-08-24T04:03:25;100984.64;;;22.07;42.12
82668;BME280;72376;51.374;-0.176;2023-08-24T04:05:50;100985.96;;;22.19;41.62
82668;BME280;72376;51.374;-0.176;2023-08-24T04:08:16;100991.34;;;21.99;41.82
82668;BME280;72376;51.374;-0.176;2023-08-24T04:10:41;100990.85;;;22.08;41.53
82668;BME280;72376;51.374;-0.176;2023-08-24T04:13:06;100981.25;;;22.79;41.24
82668;BME280;72376;51.374;-0.176;2023-08-24T04:15:32;100949.61;;;22.45;41.21
82668;BME280;72376;51.374;-0.176;2023-08-24T04:17:57;100939.86;;;22.46;40.90
82668;BME280;72376;51.374;-0.176;2023-08-24T04:20:22;100957.47;;;22.46;41.24
82668;BME280;72376;51.374;-0.176;2023-08-24T04:22:48;100967.63;;;22.38;41.40
82668;BME280;72376;51.374;-0.176;2023-08-24T04:25:13;100969.07;;;22.56;41.32
82668;BME280;72376;51.374;-0.176;2023-08-24T04:27:44;100980.73;;;23.40;39.95
82668;BME280;72376;51.374;-0.176;2023-08-24T04:30:05;101005.55;;;21.95;43.15
82668;BME280;72376;51.374;-0.176;2023-08-24T04:32:31;101028.03;;;20.31;46.39
82668;BME280;72376;51.374;-0.176;2023-08-24T04:34:55;101026.58;;;20.82;46.38
82668;BME280;72376;51.374;-0.176;2023-08-24T04:37:20;101011.62;;;20.99;45.52
82668;BME280;72376;51.374;-0.176;2023-08-24T04:39:46;100992.14;;;21.22;44.86
82668;BME280;72376;51.374;-0.176;2023-08-24T04:42:11;100974.91;;;21.44;43.72
82668;BME280;72376;51.374;-0.176;2023-08-24T04:44:37;100980.10;;;22.07;43.59
82668;BME280;72376;51.374;-0.176;2023-08-24T04:47:02;100983.95;;;22.48;42.27
82668;BME280;72376;51.374;-0.176;2023-08-24T04:49:29;100994.24;;;22.44;42.46
82668;BME280;72376;51.374;-0.176;2023-08-24T04:51:53;101006.24;;;22.05;43.61
82668;BME280;72376;51.374;-0.176;2023-08-24T04:54:19;100989.93;;;21.58;45.39
82668;BME280;72376;51.374;-0.176;2023-08-24T04:56:43;100965.24;;;21.79;44.17
82668;BME280;72376;51.374;-0.176;2023-08-24T04:59:09;100946.91;;;22.23;43.65
82668;BME280;72376;51.374;-0.176;2023-08-24T05:01:34;100953.36;;;22.35;43.73
82668;BME280;72376;51.374;-0.176;2023-08-24T05:03:59;100955.14;;;22.75;42.67
82668;BME280;72376;51.374;-0.176;2023-08-24T05:06:25;100972.19;;;23.01;41.87
82668;BME280;72376;51.374;-0.176;2023-08-24T05:09:00;100993.35;;;21.93;44.00
82668;BME280;72376;51.374;-0.176;2023-08-24T05:11:18;100995.43;;;22.44;43.24
82668;BME280;72376;51.374;-0.176;2023-08-24T05:13:41;100984.91;;;22.21;44.03
82668;BME280;72376;51.374;-0.176;2023-08-24T05:16:05;100991.38;;;22.20;42.78
82668;BME280;72376;51.374;-0.176;2023-08-24T05:18:31;100977.97;;;22.38;43.86
82668;BME280;72376;51.374;-0.176;2023-08-24T05:20:56;100965.47;;;22.43;43.68
82668;BME280;72376;51.374;-0.176;2023-08-24T05:23:21;100969.09;;;22.75;43.81
82668;BME280;72376;51.374;-0.176;2023-08-24T05:25:47;100989.87;;;21.72;44.95
82668;BME280;72376;51.374;-0.176;2023-08-24T05:28:12;100993.86;;;22.44;44.32
82668;BME280;72376;51.374;-0.176;2023-08-24T05:30:37;100981.86;;;23.67;42.72
82668;BME280;72376;51.374;-0.176;2023-08-24T05:33:03;100979.71;;;22.84;43.60
82668;BME280;72376;51.374;-0.176;2023-08-24T05:35:28;100996.78;;;22.76;43.92
82668;BME280;72376;51.374;-0.176;2023-08-24T05:37:53;100985.78;;;21.92;45.54
82668;BME280;72376;51.374;-0.176;2023-08-24T05:40:19;100964.75;;;21.33;46.71
82668;BME280;72376;51.374;-0.176;2023-08-24T05:42:44;100973.80;;;22.24;45.94
82668;BME280;72376;51.374;-0.176;2023-08-24T05:45:10;100989.91;;;21.98;46.24
82668;BME280;72376;51.374;-0.176;2023-08-24T05:47:36;100993.24;;;22.19;45.54
82668;BME280;72376;51.374;-0.176;2023-08-24T05:50:00;101000.08;;;22.62;45.27
82668;BME280;72376;51.374;-0.176;2023-08-24T05:52:26;101004.52;;;22.05;46.39
82668;BME280;72376;51.374;-0.176;2023-08-24T05:54:51;101003.91;;;22.13;47.03
82668;BME280;72376;51.374;-0.176;2023-08-24T05:57:16;100993.81;;;22.19;46.98
82668;BME280;72376;51.374;-0.176;2023-08-24T05:59:42;100979.37;;;21.85;46.77
82668;BME280;72376;51.374;-0.176;2023-08-24T06:02:07;100954.83;;;22.17;46.81
82668;BME280;72376;51.374;-0.176;2023-08-24T06:04:33;100950.98;;;21.94;46.91
82668;BME280;72376;51.374;-0.176;2023-08-24T06:06:58;100962.60;;;22.15;47.24
82668;BME280;72376;51.374;-0.176;2023-08-24T06:09:23;100954.91;;;22.54;46.73
82668;BME280;72376;51.374;-0.176;2023-08-24T06:11:49;100951.69;;;22.45;46.24
82668;BME280;72376;51.374;-0.176;2023-08-24T06:14:14;100955.19;;;22.83;45.59
82668;BME280;72376;51.374;-0.176;2023-08-24T06:16:40;100952.86;;;21.00;47.87
82668;BME280;72376;51.374;-0.176;2023-08-24T06:19:05;100950.68;;;22.56;46.17
82668;BME280;72376;51.374;-0.176;2023-08-24T06:21:30;100951.01;;;22.45;46.29
82668;BME280;72376;51.374;-0.176;2023-08-24T06:23:55;100944.96;;;22.38;45.74
82668;BME280;72376;51.374;-0.176;2023-08-24T06:26:21;100938.17;;;22.75;45.28
82668;BME280;72376;51.374;-0.176;2023-08-24T06:28:46;100926.94;;;23.55;44.22
82668;BME280;72376;51.374;-0.176;2023-08-24T06:31:12;100929.44;;;23.06;44.34
82668;BME280;72376;51.374;-0.176;2023-08-24T06:33:38;100932.50;;;22.59;44.87
82668;BME280;72376;51.374;-0.176;2023-08-24T06:36:03;100931.10;;;23.11;44.23
82668;BME280;72376;51.374;-0.176;2023-08-24T06:38:27;100932.26;;;23.20;43.55
82668;BME280;72376;51.374;-0.176;2023-08-24T06:40:53;100933.34;;;23.60;43.10
82668;BME280;72376;51.374;-0.176;2023-08-24T06:43:19;100941.47;;;21.69;45.94
82668;BME280;72376;51.374;-0.176;2023-08-24T06:45:44;100943.22;;;22.47;44.84
82668;BME280;72376;51.374;-0.176;2023-08-24T06:48:08;100948.50;;;20.99;46.86
82668;BME280;72376;51.374;-0.176;2023-08-24T06:50:34;100955.88;;;21.38;47.64
82668;BME280;72376;51.374;-0.176;2023-08-24T06:52:59;100964.00;;;20.70;48.97
82668;BME280;72376;51.374;-0.176;2023-08-24T06:55:24;100974.55;;;19.92;49.63
82668;BME280;72376;51.374;-0.176;2023-08-24T06:57:50;100991.73;;;21.01;48.40
82668;BME280;72376;51.374;-0.176;2023-08-24T07:00:16;100982.78;;;20.24;49.98
82668;BME280;72376;51.374;-0.176;2023-08-24T07:02:41;100963.67;;;21.91;47.38
82668;BME280;72376;51.374;-0.176;2023-08-24T07:05:06;100954.35;;;21.57;47.40
82668;BME280;72376;51.374;-0.176;2023-08-24T07:07:31;100951.50;;;22.52;46.12
82668;BME280;72376;51.374;-0.176;2023-08-24T07:09:57;100958.54;;;22.56;45.32
82668;BME280;72376;51.374;-0.176;2023-08-24T07:12:22;100969.39;;;22.46;46.19
82668;BME280;72376;51.374;-0.176;2023-08-24T07:14:47;100966.47;;;21.61;47.93
82668;BME280;72376;51.374;-0.176;2023-08-24T07:17:13;100951.25;;;21.78;48.38
82668;BME280;72376;51.374;-0.176;2023-08-24T07:19:38;100943.42;;;21.36;47.99
82668;BME280;72376;51.374;-0.176;2023-08-24T07:22:03;100942.12;;;21.91;47.37
82668;BME280;72376;51.374;-0.176;2023-08-24T07:24:29;100940.33;;;22.47;46.73
82668;BME280;72376;51.374;-0.176;2023-08-24T07:26:54;100939.12;;;21.60;48.95
82668;BME280;72376;51.374;-0.176;2023-08-24T07:29:19;100932.26;;;20.68;51.75
82668;BME280;72376;51.374;-0.176;2023-08-24T07:31:44;100933.65;;;21.18;51.28
82668;BME280;72376;51.374;-0.176;2023-08-24T07:34:10;100930.75;;;21.68;49.52
82668;BME280;72376;51.374;-0.176;2023-08-24T07:36:35;100930.97;;;20.42;50.93
82668;BME280;72376;51.374;-0.176;2023-08-24T07:39:00;100924.87;;;21.83;48.64
82668;BME280;72376;51.374;-0.176;2023-08-24T07:41:26;100922.92;;;22.70;47.10
82668;BME280;72376;51.374;-0.176;2023-08-24T07:43:51;100914.70;;;21.07;48.71
82668;BME280;72376;51.374;-0.176;2023-08-24T07:46:16;100911.84;;;21.67;47.94
82668;BME280;72376;51.374;-0.176;2023-08-24T07:48:42;100902.42;;;21.94;48.23
82668;BME280;72376;51.374;-0.176;2023-08-24T07:51:08;100897.29;;;22.01;48.36
82668;BME280;72376;51.374;-0.176;2023-08-24T07:53:32;100889.37;;;22.35;47.33
82668;BME280;72376;51.374;-0.176;2023-08-24T07:55:58;100876.30;;;22.59;47.48
82668;BME280;72376;51.374;-0.176;2023-08-24T07:58:24;100868.48;;;22.99;46.08
82668;BME280;72376;51.374;-0.176;2023-08-24T08:00:49;100866.65;;;23.11;45.34
82668;BME280;72376;51.374;-0.176;2023-08-24T08:03:15;100857.22;;;23.23;45.49
82668;BME280;72376;51.374;-0.176;2023-08-24T08:05:40;100857.95;;;23.37;45.25
82668;BME280;72376;51.374;-0.176;2023-08-24T08:08:05;100858.81;;;23.29;44.94
82668;BME280;72376;51.374;-0.176;2023-08-24T08:10:30;100858.57;;;23.39;44.75
82668;BME280;72376;51.374;-0.176;2023-08-24T08:12:56;100861.14;;;24.25;43.71
82668;BME280;72376;51.374;-0.176;2023-08-24T08:15:21;100865.58;;;23.14;45.91
82668;BME280;72376;51.374;-0.176;2023-08-24T08:17:46;100857.92;;;23.30;45.58
82668;BME280;72376;51.374;-0.176;2023-08-24T08:20:14;100840.92;;;23.87;44.86
82668;BME280;72376;51.374;-0.176;2023-08-24T08:22:37;100835.76;;;23.81;45.07
82668;BME280;72376;51.374;-0.176;2023-08-24T08:25:02;100836.82;;;24.63;43.37
82668;BME280;72376;51.374;-0.176;2023-08-24T08:27:27;100833.58;;;24.37;43.74
82668;BME280;72376;51.374;-0.176;2023-08-24T08:29:53;100833.78;;;24.17;43.63
82668;BME280;72376;51.374;-0.176;2023-08-24T08:32:18;100827.56;;;23.75;43.75
82668;BME280;72376;51.374;-0.176;2023-08-24T08:34:44;100820.90;;;24.79;42.35
82668;BME280;72376;51.374;-0.176;2023-08-24T08:37:09;100815.92;;;24.36;43.56
82668;BME280;72376;51.374;-0.176;2023-08-24T08:39:35;100811.86;;;24.80;41.53
82668;BME280;72376;51.374;-0.176;2023-08-24T08:42:01;100801.55;;;24.76;42.01
82668;BME280;72376;51.374;-0.176;2023-08-24T08:44:30;100793.84;;;24.83;42.76
82668;BME280;72376;51.374;-0.176;2023-08-24T08:46:50;100797.31;;;25.71;41.05
82668;BME280;72376;51.374;-0.176;2023-08-24T08:49:16;100795.44;;;24.74;43.29
82668;BME280;72376;51.374;-0.176;2023-08-24T08:51:41;100782.68;;;25.12;42.25
82668;BME280;72376;51.374;-0.176;2023-08-24T08:54:06;100770.79;;;25.36;42.52
82668;BME280;72376;51.374;-0.176;2023-08-24T08:56:32;100772.98;;;24.63;42.55
82668;BME280;72376;51.374;-0.176;2023-08-24T08:58:58;100780.81;;;25.33;42.95
82668;BME280;72376;51.374;-0.176;2023-08-24T09:01:24;100784.33;;;24.15;44.05
82668;BME280;72376;51.374;-0.176;2023-08-24T09:03:48;100789.15;;;24.73;42.68
82668;BME280;72376;51.374;-0.176;2023-08-24T09:06:14;100799.01;;;23.99;43.67
82668;BME280;72376;51.374;-0.176;2023-08-24T09:08:39;100829.29;;;21.12;48.07
82668;BME280;72376;51.374;-0.176;2023-08-24T09:11:04;100849.82;;;21.76;47.55
82668;BME280;72376;51.374;-0.176;2023-08-24T09:13:29;100868.08;;;21.43;49.19
82668;BME280;72376;51.374;-0.176;2023-08-24T09:16:02;100861.82;;;21.61;48.36
82668;BME280;72376;51.374;-0.176;2023-08-24T09:18:20;100866.85;;;22.13;47.27
82668;BME280;72376;51.374;-0.176;2023-08-24T09:20:46;100889.55;;;20.65;52.18
82668;BME280;72376;51.374;-0.176;2023-08-24T09:23:17;100893.45;;;19.61;55.89
82668;BME280;72376;51.374;-0.176;2023-08-24T09:25:44;100882.89;;;20.28;54.57
82668;BME280;72376;51.374;-0.176;2023-08-24T09:28:02;100896.01;;;19.58;56.44
82668;BME280;72376;51.374;-0.176;2023-08-24T09:30:30;100893.65;;;19.07;57.17
82668;BME280;72376;51.374;-0.176;2023-08-24T09:32:52;100895.15;;;19.71;56.44
82668;BME280;72376;51.374;-0.176;2023-08-24T09:35:21;100864.11;;;20.19;54.10
82668;BME280;72376;51.374;-0.176;2023-08-24T09:37:52;100848.36;;;19.68;54.95
82668;BME280;72376;51.374;-0.176;2023-08-24T09:40:08;100829.40;;;19.75;53.53
82668;BME280;72376;51.374;-0.176;2023-08-24T09:42:37;100816.06;;;20.10;52.29
82668;BME280;72376;51.374;-0.176;2023-08-24T09:45:03;100825.55;;;20.86;51.53
82668;BME280;72376;51.374;-0.176;2023-08-24T09:47:23;100828.04;;;21.83;49.66
82668;BME280;72376;51.374;-0.176;2023-08-24T09:50:00;100825.69;;;20.08;52.84
82668;BME280;72376;51.374;-0.176;2023-08-24T09:52:15;100821.25;;;21.18;50.14
82668;BME280;72376;51.374;-0.176;2023-08-24T09:54:42;100818.37;;;21.14;51.07
82668;BME280;72376;51.374;-0.176;2023-08-24T09:57:06;100813.88;;;21.05;52.07
82668;BME280;72376;51.374;-0.176;2023-08-24T09:59:31;100812.66;;;20.92;50.33
82668;BME280;72376;51.374;-0.176;2023-08-24T10:01:56;100809.66;;;20.63;51.10
82668;BME280;72376;51.374;-0.176;2023-08-24T10:04:23;100796.81;;;20.87;51.13
82668;BME280;72376;51.374;-0.176;2023-08-24T10:06:55;100796.31;;;20.75;51.00
82668;BME280;72376;51.374;-0.176;2023-08-24T10:09:21;100805.76;;;20.33;52.56
82668;BME280;72376;51.374;-0.176;2023-08-24T10:11:42;100808.10;;;21.68;51.52
82668;BME280;72376;51.374;-0.176;2023-08-24T10:14:08;100805.84;;;19.97;53.89
82668;BME280;72376;51.374;-0.176;2023-08-24T10:16:30;100806.35;;;20.62;53.38
82668;BME280;72376;51.374;-0.176;2023-08-24T10:18:55;100809.57;;;20.67;52.27
82668;BME280;72376;51.374;-0.176;2023-08-24T10:21:23;100804.74;;;21.53;51.98
82668;BME280;72376;51.374;-0.176;2023-08-24T10:23:46;100798.72;;;19.85;53.42
82668;BME280;72376;51.374;-0.176;2023-08-24T10:26:12;100799.10;;;21.70;51.34
82668;BME280;72376;51.374;-0.176;2023-08-24T10:28:36;100799.01;;;22.52;49.19
82668;BME280;72376;51.374;-0.176;2023-08-24T10:31:02;100805.69;;;22.27;49.81
82668;BME280;72376;51.374;-0.176;2023-08-24T10:33:26;100811.10;;;22.96;47.99
82668;BME280;72376;51.374;-0.176;2023-08-24T10:35:51;100819.85;;;22.36;49.36
82668;BME280;72376;51.374;-0.176;2023-08-24T10:38:24;100813.99;;;21.78;48.68
82668;BME280;72376;51.374;-0.176;2023-08-24T10:40:42;100815.12;;;21.70;50.16
82668;BME280;72376;51.374;-0.176;2023-08-24T10:43:07;100826.70;;;22.45;49.79
82668;BME280;72376;51.374;-0.176;2023-08-24T10:47:58;100826.76;;;22.23;48.60
82668;BME280;72376;51.374;-0.176;2023-08-24T10:50:24;100820.14;;;22.69;47.39
82668;BME280;72376;51.374;-0.176;2023-08-24T10:52:49;100807.70;;;22.63;47.54
82668;BME280;72376;51.374;-0.176;2023-08-24T10:55:26;100805.74;;;21.75;48.10
82668;BME280;72376;51.374;-0.176;2023-08-24T10:57:40;100808.31;;;21.89;48.38
82668;BME280;72376;51.374;-0.176;2023-08-24T11:00:09;100809.60;;;22.59;46.06
82668;BME280;72376;51.374;-0.176;2023-08-24T11:02:30;100815.71;;;21.28;47.53
82668;BME280;72376;51.374;-0.176;2023-08-24T11:05:06;100811.66;;;22.96;43.59
82668;BME280;72376;51.374;-0.176;2023-08-24T11:07:21;100812.45;;;23.48;43.10
82668;BME280;72376;51.374;-0.176;2023-08-24T11:09:47;100811.96;;;23.28;43.60
82668;BME280;72376;51.374;-0.176;2023-08-24T11:12:12;100808.22;;;23.90;42.06
82668;BME280;72376;51.374;-0.176;2023-08-24T11:14:48;100807.28;;;24.87;41.44
82668;BME280;72376;51.374;-0.176;2023-08-24T11:17:17;100811.75;;;23.58;41.75
82668;BME280;72376;51.374;-0.176;2023-08-24T11:19:28;100815.05;;;25.05;40.45
82668;BME280;72376;51.374;-0.176;2023-08-24T11:21:53;100818.49;;;25.37;39.27
82668;BME280;72376;51.374;-0.176;2023-08-24T11:24:19;100804.44;;;25.04;39.48
82668;BME280;72376;51.374;-0.176;2023-08-24T11:26:45;100798.89;;;25.16;38.78
82668;BME280;72376;51.374;-0.176;2023-08-24T11:29:09;100796.62;;;24.79;39.78
82668;BME280;72376;51.374;-0.176;2023-08-24T11:31:35;100804.23;;;23.86;41.01
82668;BME280;72376;51.374;-0.176;2023-08-24T11:34:00;100798.65;;;24.26;40.46
82668;BME280;72376;51.374;-0.176;2023-08-24T11:36:25;100793.67;;;24.40;41.50
82668;BME280;72376;51.374;-0.176;2023-08-24T11:38:53;100793.96;;;22.18;43.76
82668;BME280;72376;51.374;-0.176;2023-08-24T11:41:17;100783.69;;;23.16;41.95
82668;BME280;72376;51.374;-0.176;2023-08-24T11:43:42;100778.50;;;22.22;43.04
82668;BME280;72376;51.374;-0.176;2023-08-24T11:46:07;100760.21;;;22.87;41.85
82668;BME280;72376;51.374;-0.176;2023-08-24T11:48:32;100754.00;;;23.55;41.68
82668;BME280;72376;51.374;-0.176;2023-08-24T11:50:58;100751.64;;;23.74;41.58
82668;BME280;72376;51.374;-0.176;2023-08-24T11:53:23;100753.29;;;23.31;41.57
82668;BME280;72376;51.374;-0.176;2023-08-24T11:55:48;100758.57;;;23.15;41.38
82668;BME280;72376;51.374;-0.176;2023-08-24T11:58:14;100756.92;;;23.52;40.81
82668;BME280;72376;51.374;-0.176;2023-08-24T12:00:39;100755.49;;;23.41;40.64
82668;BME280;72376;51.374;-0.176;2023-08-24T12:03:04;100757.53;;;23.33;40.15
82668;BME280;72376;51.374;-0.176;2023-08-24T12:05:29;100763.99;;;22.95;40.24
82668;BME280;72376;51.374;-0.176;2023-08-24T12:07:55;100765.08;;;23.48;40.00
82668;BME280;72376;51.374;-0.176;2023-08-24T12:10:21;100752.02;;;22.60;40.30
82668;BME280;72376;51.374;-0.176;2023-08-24T12:12:46;100752.02;;;23.14;40.58
82668;BME280;72376;51.374;-0.176;2023-08-24T12:15:16;100759.21;;;22.14;42.18
82668;BME280;72376;51.374;-0.176;2023-08-24T12:17:43;100757.96;;;22.55;41.93
82668;BME280;72376;51.374;-0.176;2023-08-24T12:20:02;100759.28;;;22.43;42.31
82668;BME280;72376;51.374;-0.176;2023-08-24T12:22:27;100762.79;;;22.15;41.95
82668;BME280;72376;51.374;-0.176;2023-08-24T12:24:52;100773.67;;;21.70;43.39
82668;BME280;72376;51.374;-0.176;2023-08-24T12:27:19;100765.95;;;22.37;42.34
82668;BME280;72376;51.374;-0.176;2023-08-24T12:29:44;100756.35;;;21.70;43.03
82668;BME280;72376;51.374;-0.176;2023-08-24T12:32:08;100750.33;;;22.19;42.64